CheckWX is a tool to help pilots better visualize weather data.  It is not intended as a substitute for an official pre-flight weather briefing.

12:16:04 UTC

UIII TAF
Irkutsk Airport
Irkutsk, Russian Federation
TAF UIII 051400Z 0515/0615 VRB01MPS 9999 NSC TEMPO 0518/0602 0500 FZFG VV001

Apr-5@
15:00 UTC

Apr-5 @ 15:00 UTC

Apr-6@
15:00 UTC

Apr-6 @ 15:00 UTC

TAF UIII 051400Z 0515/0615 VRB01MPS 9999 NSC
Wind
  • Variable at 2 KTS
Cloud Levels
  • No significant clouds

Apr-5@
18:00 UTC

Apr-5 @ 18:00 UTC

Apr-6@
02:00 UTC

Apr-6 @ 02:00 UTC

TEMPO 0518/0602 0500 FZFG VV001

Expired

Conditions
Freezing Fog
Cloud Levels
  • Vertical visibility